<?xml version="1.0" encoding="UTF-8" standalone="no" ?>
<gpx xmlns="http://www.topografix.com/GPX/1/1" xmlns:xsi="http://www.w3.org/2001/XMLSchema-instance" xsi:schemaLocation="http://www.topografix.com/GPX/1/1 http://www.topografix.com/GPX/1/1/gpx.xsd" version="1.1" creator="VisuGPX - https://www.visugpx.com">
  <metadata>
    <name>Larchant (Forêt)</name>
    <desc><![CDATA[                                                                                                                                 ]]></desc>
  </metadata>
  <trk>
    <name><![CDATA[Track 7 41]]></name>
    <trkseg>
      <trkpt lat="48.28325" lon="2.59807">
        <ele>81</ele>
        <time>2017-05-05T08:13:02Z</time>
      </trkpt>
      <trkpt lat="48.28333" lon="2.59802">
        <ele>79</ele>
        <time>2017-05-05T08:14:00Z</time>
      </trkpt>
      <trkpt lat="48.28341" lon="2.59788">
        <ele>74</ele>
        <time>2017-05-05T08:14:42Z</time>
      </trkpt>
      <trkpt lat="48.28344" lon="2.59774">
        <ele>73</ele>
        <time>2017-05-05T08:14:52Z</time>
      </trkpt>
      <trkpt lat="48.28351" lon="2.59763">
        <ele>74</ele>
        <time>2017-05-05T08:15:09Z</time>
      </trkpt>
      <trkpt lat="48.28359" lon="2.59754">
        <ele>78</ele>
        <time>2017-05-05T08:15:17Z</time>
      </trkpt>
      <trkpt lat="48.28364" lon="2.59739">
        <ele>79</ele>
        <time>2017-05-05T08:15:35Z</time>
      </trkpt>
      <trkpt lat="48.28373" lon="2.59731">
        <ele>83</ele>
        <time>2017-05-05T08:15:43Z</time>
      </trkpt>
      <trkpt lat="48.28389" lon="2.59714">
        <ele>83</ele>
        <time>2017-05-05T08:15:59Z</time>
      </trkpt>
      <trkpt lat="48.28395" lon="2.59698">
        <ele>78</ele>
        <time>2017-05-05T08:16:09Z</time>
      </trkpt>
      <trkpt lat="48.28394" lon="2.59679">
        <ele>75</ele>
        <time>2017-05-05T08:16:27Z</time>
      </trkpt>
      <trkpt lat="48.28394" lon="2.59664">
        <ele>76</ele>
        <time>2017-05-05T08:16:35Z</time>
      </trkpt>
      <trkpt lat="48.28395" lon="2.5965">
        <ele>68</ele>
        <time>2017-05-05T08:16:41Z</time>
      </trkpt>
      <trkpt lat="48.28392" lon="2.59627">
        <ele>67</ele>
        <time>2017-05-05T08:17:03Z</time>
      </trkpt>
      <trkpt lat="48.28399" lon="2.5961">
        <ele>65</ele>
        <time>2017-05-05T08:17:21Z</time>
      </trkpt>
      <trkpt lat="48.28405" lon="2.59584">
        <ele>72</ele>
        <time>2017-05-05T08:17:43Z</time>
      </trkpt>
      <trkpt lat="48.28415" lon="2.59584">
        <ele>75</ele>
        <time>2017-05-05T08:18:03Z</time>
      </trkpt>
      <trkpt lat="48.28424" lon="2.59589">
        <ele>72</ele>
        <time>2017-05-05T08:19:04Z</time>
      </trkpt>
      <trkpt lat="48.28433" lon="2.59583">
        <ele>74</ele>
        <time>2017-05-05T08:19:10Z</time>
      </trkpt>
      <trkpt lat="48.28438" lon="2.59572">
        <ele>73</ele>
        <time>2017-05-05T08:19:18Z</time>
      </trkpt>
      <trkpt lat="48.28443" lon="2.59557">
        <ele>68</ele>
        <time>2017-05-05T08:19:30Z</time>
      </trkpt>
      <trkpt lat="48.28449" lon="2.59544">
        <ele>68</ele>
        <time>2017-05-05T08:19:40Z</time>
      </trkpt>
      <trkpt lat="48.28454" lon="2.59524">
        <ele>72</ele>
        <time>2017-05-05T08:19:52Z</time>
      </trkpt>
      <trkpt lat="48.28462" lon="2.59533">
        <ele>74</ele>
        <time>2017-05-05T08:20:10Z</time>
      </trkpt>
      <trkpt lat="48.28468" lon="2.59543">
        <ele>71</ele>
        <time>2017-05-05T08:20:22Z</time>
      </trkpt>
      <trkpt lat="48.28475" lon="2.59553">
        <ele>70</ele>
        <time>2017-05-05T08:20:30Z</time>
      </trkpt>
      <trkpt lat="48.28484" lon="2.59562">
        <ele>74</ele>
        <time>2017-05-05T08:20:38Z</time>
      </trkpt>
      <trkpt lat="48.28493" lon="2.5956">
        <ele>77</ele>
        <time>2017-05-05T08:20:42Z</time>
      </trkpt>
      <trkpt lat="48.28501" lon="2.59551">
        <ele>75</ele>
        <time>2017-05-05T08:20:52Z</time>
      </trkpt>
      <trkpt lat="48.28508" lon="2.59539">
        <ele>72</ele>
        <time>2017-05-05T08:21:00Z</time>
      </trkpt>
      <trkpt lat="48.28512" lon="2.59522">
        <ele>73</ele>
        <time>2017-05-05T08:21:08Z</time>
      </trkpt>
      <trkpt lat="48.28518" lon="2.59512">
        <ele>70</ele>
        <time>2017-05-05T08:21:26Z</time>
      </trkpt>
      <trkpt lat="48.28526" lon="2.59488">
        <ele>75</ele>
        <time>2017-05-05T08:21:37Z</time>
      </trkpt>
      <trkpt lat="48.28532" lon="2.5947">
        <ele>72</ele>
        <time>2017-05-05T08:21:47Z</time>
      </trkpt>
      <trkpt lat="48.28537" lon="2.59456">
        <ele>72</ele>
        <time>2017-05-05T08:21:59Z</time>
      </trkpt>
      <trkpt lat="48.28543" lon="2.59444">
        <ele>72</ele>
        <time>2017-05-05T08:22:09Z</time>
      </trkpt>
      <trkpt lat="48.28547" lon="2.59431">
        <ele>70</ele>
        <time>2017-05-05T08:22:15Z</time>
      </trkpt>
      <trkpt lat="48.28551" lon="2.59419">
        <ele>71</ele>
        <time>2017-05-05T08:22:23Z</time>
      </trkpt>
      <trkpt lat="48.28555" lon="2.59404">
        <ele>70</ele>
        <time>2017-05-05T08:22:35Z</time>
      </trkpt>
      <trkpt lat="48.28556" lon="2.59391">
        <ele>75</ele>
        <time>2017-05-05T08:22:43Z</time>
      </trkpt>
      <trkpt lat="48.28566" lon="2.59386">
        <ele>77</ele>
        <time>2017-05-05T08:22:57Z</time>
      </trkpt>
      <trkpt lat="48.28576" lon="2.59375">
        <ele>76</ele>
        <time>2017-05-05T08:23:13Z</time>
      </trkpt>
      <trkpt lat="48.28585" lon="2.59359">
        <ele>74</ele>
        <time>2017-05-05T08:23:25Z</time>
      </trkpt>
      <trkpt lat="48.2859" lon="2.59348">
        <ele>73</ele>
        <time>2017-05-05T08:23:33Z</time>
      </trkpt>
      <trkpt lat="48.28596" lon="2.59337">
        <ele>73</ele>
        <time>2017-05-05T08:23:43Z</time>
      </trkpt>
      <trkpt lat="48.28602" lon="2.59326">
        <ele>70</ele>
        <time>2017-05-05T08:23:51Z</time>
      </trkpt>
      <trkpt lat="48.28602" lon="2.59309">
        <ele>80</ele>
        <time>2017-05-05T08:23:55Z</time>
      </trkpt>
      <trkpt lat="48.2861" lon="2.59302">
        <ele>79</ele>
        <time>2017-05-05T08:24:17Z</time>
      </trkpt>
      <trkpt lat="48.28614" lon="2.59289">
        <ele>76</ele>
        <time>2017-05-05T08:24:25Z</time>
      </trkpt>
      <trkpt lat="48.2862" lon="2.59274">
        <ele>72</ele>
        <time>2017-05-05T08:24:36Z</time>
      </trkpt>
      <trkpt lat="48.28628" lon="2.59259">
        <ele>71</ele>
        <time>2017-05-05T08:24:48Z</time>
      </trkpt>
      <trkpt lat="48.28632" lon="2.59247">
        <ele>70</ele>
        <time>2017-05-05T08:24:58Z</time>
      </trkpt>
      <trkpt lat="48.28636" lon="2.59235">
        <ele>70</ele>
        <time>2017-05-05T08:25:10Z</time>
      </trkpt>
      <trkpt lat="48.2864" lon="2.59223">
        <ele>71</ele>
        <time>2017-05-05T08:25:16Z</time>
      </trkpt>
      <trkpt lat="48.28642" lon="2.5921">
        <ele>78</ele>
        <time>2017-05-05T08:25:26Z</time>
      </trkpt>
      <trkpt lat="48.28647" lon="2.59191">
        <ele>84</ele>
        <time>2017-05-05T08:26:00Z</time>
      </trkpt>
      <trkpt lat="48.28653" lon="2.59176">
        <ele>86</ele>
        <time>2017-05-05T08:26:08Z</time>
      </trkpt>
      <trkpt lat="48.28658" lon="2.59161">
        <ele>89</ele>
        <time>2017-05-05T08:26:16Z</time>
      </trkpt>
      <trkpt lat="48.28663" lon="2.59149">
        <ele>90</ele>
        <time>2017-05-05T08:26:26Z</time>
      </trkpt>
      <trkpt lat="48.2867" lon="2.59136">
        <ele>90</ele>
        <time>2017-05-05T08:26:40Z</time>
      </trkpt>
      <trkpt lat="48.28675" lon="2.59122">
        <ele>88</ele>
        <time>2017-05-05T08:26:52Z</time>
      </trkpt>
      <trkpt lat="48.28679" lon="2.59109">
        <ele>89</ele>
        <time>2017-05-05T08:27:00Z</time>
      </trkpt>
      <trkpt lat="48.28683" lon="2.59097">
        <ele>85</ele>
        <time>2017-05-05T08:27:12Z</time>
      </trkpt>
      <trkpt lat="48.28687" lon="2.59084">
        <ele>85</ele>
        <time>2017-05-05T08:27:30Z</time>
      </trkpt>
      <trkpt lat="48.28693" lon="2.59069">
        <ele>86</ele>
        <time>2017-05-05T08:27:42Z</time>
      </trkpt>
      <trkpt lat="48.28698" lon="2.59049">
        <ele>87</ele>
        <time>2017-05-05T08:27:54Z</time>
      </trkpt>
      <trkpt lat="48.28703" lon="2.59036">
        <ele>89</ele>
        <time>2017-05-05T08:28:00Z</time>
      </trkpt>
      <trkpt lat="48.28707" lon="2.59024">
        <ele>92</ele>
        <time>2017-05-05T08:28:10Z</time>
      </trkpt>
      <trkpt lat="48.28711" lon="2.59012">
        <ele>94</ele>
        <time>2017-05-05T08:28:20Z</time>
      </trkpt>
      <trkpt lat="48.28716" lon="2.58998">
        <ele>93</ele>
        <time>2017-05-05T08:28:31Z</time>
      </trkpt>
      <trkpt lat="48.28722" lon="2.58987">
        <ele>91</ele>
        <time>2017-05-05T08:28:39Z</time>
      </trkpt>
      <trkpt lat="48.28728" lon="2.58977">
        <ele>89</ele>
        <time>2017-05-05T08:28:53Z</time>
      </trkpt>
      <trkpt lat="48.28742" lon="2.5897">
        <ele>91</ele>
        <time>2017-05-05T08:29:01Z</time>
      </trkpt>
      <trkpt lat="48.28755" lon="2.58952">
        <ele>95</ele>
        <time>2017-05-05T08:29:17Z</time>
      </trkpt>
      <trkpt lat="48.28767" lon="2.58942">
        <ele>101</ele>
        <time>2017-05-05T08:29:33Z</time>
      </trkpt>
      <trkpt lat="48.2878" lon="2.58931">
        <ele>98</ele>
        <time>2017-05-05T08:29:47Z</time>
      </trkpt>
      <trkpt lat="48.28793" lon="2.58917">
        <ele>100</ele>
        <time>2017-05-05T08:30:23Z</time>
      </trkpt>
      <trkpt lat="48.28805" lon="2.58903">
        <ele>106</ele>
        <time>2017-05-05T08:30:39Z</time>
      </trkpt>
      <trkpt lat="48.28817" lon="2.58893">
        <ele>103</ele>
        <time>2017-05-05T08:30:45Z</time>
      </trkpt>
      <trkpt lat="48.28831" lon="2.58888">
        <ele>106</ele>
        <time>2017-05-05T08:31:05Z</time>
      </trkpt>
      <trkpt lat="48.28847" lon="2.58888">
        <ele>107</ele>
        <time>2017-05-05T08:31:23Z</time>
      </trkpt>
      <trkpt lat="48.28861" lon="2.58888">
        <ele>107</ele>
        <time>2017-05-05T08:31:39Z</time>
      </trkpt>
      <trkpt lat="48.28874" lon="2.58886">
        <ele>108</ele>
        <time>2017-05-05T08:32:00Z</time>
      </trkpt>
      <trkpt lat="48.28892" lon="2.58886">
        <ele>111</ele>
        <time>2017-05-05T08:32:22Z</time>
      </trkpt>
      <trkpt lat="48.28902" lon="2.58887">
        <ele>116</ele>
        <time>2017-05-05T08:32:34Z</time>
      </trkpt>
      <trkpt lat="48.28907" lon="2.58899">
        <ele>112</ele>
        <time>2017-05-05T08:33:18Z</time>
      </trkpt>
      <trkpt lat="48.28906" lon="2.58917">
        <ele>108</ele>
        <time>2017-05-05T08:33:32Z</time>
      </trkpt>
      <trkpt lat="48.28905" lon="2.5893">
        <ele>110</ele>
        <time>2017-05-05T08:33:40Z</time>
      </trkpt>
      <trkpt lat="48.28909" lon="2.58942">
        <ele>107</ele>
        <time>2017-05-05T08:34:06Z</time>
      </trkpt>
      <trkpt lat="48.28913" lon="2.58956">
        <ele>105</ele>
        <time>2017-05-05T08:34:22Z</time>
      </trkpt>
      <trkpt lat="48.28919" lon="2.5897">
        <ele>102</ele>
        <time>2017-05-05T08:34:34Z</time>
      </trkpt>
      <trkpt lat="48.28926" lon="2.58982">
        <ele>102</ele>
        <time>2017-05-05T08:34:44Z</time>
      </trkpt>
      <trkpt lat="48.28932" lon="2.58997">
        <ele>103</ele>
        <time>2017-05-05T08:34:58Z</time>
      </trkpt>
      <trkpt lat="48.28932" lon="2.59012">
        <ele>108</ele>
        <time>2017-05-05T08:35:07Z</time>
      </trkpt>
      <trkpt lat="48.2894" lon="2.59018">
        <ele>111</ele>
        <time>2017-05-05T08:35:13Z</time>
      </trkpt>
      <trkpt lat="48.28948" lon="2.59024">
        <ele>113</ele>
        <time>2017-05-05T08:35:23Z</time>
      </trkpt>
      <trkpt lat="48.28956" lon="2.59031">
        <ele>112</ele>
        <time>2017-05-05T08:35:31Z</time>
      </trkpt>
      <trkpt lat="48.28965" lon="2.59039">
        <ele>108</ele>
        <time>2017-05-05T08:35:41Z</time>
      </trkpt>
      <trkpt lat="48.28972" lon="2.5905">
        <ele>108</ele>
        <time>2017-05-05T08:35:49Z</time>
      </trkpt>
      <trkpt lat="48.28978" lon="2.59063">
        <ele>105</ele>
        <time>2017-05-05T08:36:01Z</time>
      </trkpt>
      <trkpt lat="48.28977" lon="2.59079">
        <ele>100</ele>
        <time>2017-05-05T08:36:15Z</time>
      </trkpt>
      <trkpt lat="48.28973" lon="2.59091">
        <ele>100</ele>
        <time>2017-05-05T08:36:21Z</time>
      </trkpt>
      <trkpt lat="48.28966" lon="2.591">
        <ele>102</ele>
        <time>2017-05-05T08:36:29Z</time>
      </trkpt>
      <trkpt lat="48.28958" lon="2.59116">
        <ele>104</ele>
        <time>2017-05-05T08:36:39Z</time>
      </trkpt>
      <trkpt lat="48.28954" lon="2.59133">
        <ele>102</ele>
        <time>2017-05-05T08:36:51Z</time>
      </trkpt>
      <trkpt lat="48.28949" lon="2.59154">
        <ele>101</ele>
        <time>2017-05-05T08:37:03Z</time>
      </trkpt>
      <trkpt lat="48.28947" lon="2.5918">
        <ele>101</ele>
        <time>2017-05-05T08:37:21Z</time>
      </trkpt>
      <trkpt lat="48.28944" lon="2.59195">
        <ele>101</ele>
        <time>2017-05-05T08:37:31Z</time>
      </trkpt>
      <trkpt lat="48.28939" lon="2.59208">
        <ele>105</ele>
        <time>2017-05-05T08:37:41Z</time>
      </trkpt>
      <trkpt lat="48.28933" lon="2.59218">
        <ele>104</ele>
        <time>2017-05-05T08:37:59Z</time>
      </trkpt>
      <trkpt lat="48.28925" lon="2.59227">
        <ele>105</ele>
        <time>2017-05-05T08:38:09Z</time>
      </trkpt>
      <trkpt lat="48.28917" lon="2.59243">
        <ele>103</ele>
        <time>2017-05-05T08:38:19Z</time>
      </trkpt>
      <trkpt lat="48.2891" lon="2.59265">
        <ele>101</ele>
        <time>2017-05-05T08:38:35Z</time>
      </trkpt>
      <trkpt lat="48.28906" lon="2.59277">
        <ele>101</ele>
        <time>2017-05-05T08:38:44Z</time>
      </trkpt>
      <trkpt lat="48.28902" lon="2.59291">
        <ele>99</ele>
        <time>2017-05-05T08:38:56Z</time>
      </trkpt>
      <trkpt lat="48.28896" lon="2.59306">
        <ele>99</ele>
        <time>2017-05-05T08:39:06Z</time>
      </trkpt>
      <trkpt lat="48.28894" lon="2.5932">
        <ele>102</ele>
        <time>2017-05-05T08:39:18Z</time>
      </trkpt>
      <trkpt lat="48.28902" lon="2.59316">
        <ele>108</ele>
        <time>2017-05-05T08:39:34Z</time>
      </trkpt>
      <trkpt lat="48.28911" lon="2.59324">
        <ele>105</ele>
        <time>2017-05-05T08:41:16Z</time>
      </trkpt>
      <trkpt lat="48.28921" lon="2.59324">
        <ele>106</ele>
        <time>2017-05-05T08:41:34Z</time>
      </trkpt>
      <trkpt lat="48.28931" lon="2.59323">
        <ele>108</ele>
        <time>2017-05-05T08:41:44Z</time>
      </trkpt>
      <trkpt lat="48.2894" lon="2.59312">
        <ele>111</ele>
        <time>2017-05-05T08:42:00Z</time>
      </trkpt>
      <trkpt lat="48.28946" lon="2.593">
        <ele>111</ele>
        <time>2017-05-05T08:42:10Z</time>
      </trkpt>
      <trkpt lat="48.28949" lon="2.59284">
        <ele>113</ele>
        <time>2017-05-05T08:42:20Z</time>
      </trkpt>
      <trkpt lat="48.28952" lon="2.59267">
        <ele>115</ele>
        <time>2017-05-05T08:42:30Z</time>
      </trkpt>
      <trkpt lat="48.28968" lon="2.59267">
        <ele>118</ele>
        <time>2017-05-05T08:43:04Z</time>
      </trkpt>
      <trkpt lat="48.28978" lon="2.59285">
        <ele>118</ele>
        <time>2017-05-05T08:43:18Z</time>
      </trkpt>
      <trkpt lat="48.28985" lon="2.59302">
        <ele>112</ele>
        <time>2017-05-05T08:43:46Z</time>
      </trkpt>
      <trkpt lat="48.28993" lon="2.5932">
        <ele>114</ele>
        <time>2017-05-05T08:44:00Z</time>
      </trkpt>
      <trkpt lat="48.29006" lon="2.59314">
        <ele>116</ele>
        <time>2017-05-05T08:44:37Z</time>
      </trkpt>
      <trkpt lat="48.29019" lon="2.59301">
        <ele>119</ele>
        <time>2017-05-05T08:44:59Z</time>
      </trkpt>
      <trkpt lat="48.29032" lon="2.59294">
        <ele>116</ele>
        <time>2017-05-05T08:45:23Z</time>
      </trkpt>
      <trkpt lat="48.29045" lon="2.59302">
        <ele>117</ele>
        <time>2017-05-05T08:45:49Z</time>
      </trkpt>
      <trkpt lat="48.2906" lon="2.5931">
        <ele>119</ele>
        <time>2017-05-05T08:45:59Z</time>
      </trkpt>
      <trkpt lat="48.29068" lon="2.59326">
        <ele>117</ele>
        <time>2017-05-05T08:46:13Z</time>
      </trkpt>
      <trkpt lat="48.29076" lon="2.59345">
        <ele>115</ele>
        <time>2017-05-05T08:46:29Z</time>
      </trkpt>
      <trkpt lat="48.29075" lon="2.59371">
        <ele>109</ele>
        <time>2017-05-05T08:46:47Z</time>
      </trkpt>
      <trkpt lat="48.29084" lon="2.59396">
        <ele>109</ele>
        <time>2017-05-05T08:47:09Z</time>
      </trkpt>
      <trkpt lat="48.29092" lon="2.59412">
        <ele>111</ele>
        <time>2017-05-05T08:47:21Z</time>
      </trkpt>
      <trkpt lat="48.29098" lon="2.59432">
        <ele>104</ele>
        <time>2017-05-05T08:47:39Z</time>
      </trkpt>
      <trkpt lat="48.29103" lon="2.59418">
        <ele>105</ele>
        <time>2017-05-05T08:48:28Z</time>
      </trkpt>
      <trkpt lat="48.29113" lon="2.59411">
        <ele>105</ele>
        <time>2017-05-05T08:48:48Z</time>
      </trkpt>
      <trkpt lat="48.29122" lon="2.59403">
        <ele>104</ele>
        <time>2017-05-05T08:48:56Z</time>
      </trkpt>
      <trkpt lat="48.29131" lon="2.594">
        <ele>103</ele>
        <time>2017-05-05T08:49:08Z</time>
      </trkpt>
      <trkpt lat="48.29141" lon="2.59404">
        <ele>98</ele>
        <time>2017-05-05T08:49:24Z</time>
      </trkpt>
      <trkpt lat="48.2915" lon="2.59399">
        <ele>92</ele>
        <time>2017-05-05T08:49:36Z</time>
      </trkpt>
      <trkpt lat="48.29157" lon="2.59388">
        <ele>90</ele>
        <time>2017-05-05T08:49:46Z</time>
      </trkpt>
      <trkpt lat="48.29164" lon="2.5938">
        <ele>92</ele>
        <time>2017-05-05T08:50:00Z</time>
      </trkpt>
      <trkpt lat="48.29175" lon="2.5938">
        <ele>86</ele>
        <time>2017-05-05T08:50:20Z</time>
      </trkpt>
      <trkpt lat="48.29185" lon="2.59387">
        <ele>81</ele>
        <time>2017-05-05T08:50:32Z</time>
      </trkpt>
      <trkpt lat="48.29194" lon="2.59399">
        <ele>84</ele>
        <time>2017-05-05T08:50:44Z</time>
      </trkpt>
      <trkpt lat="48.29198" lon="2.59413">
        <ele>80</ele>
        <time>2017-05-05T08:51:04Z</time>
      </trkpt>
      <trkpt lat="48.29198" lon="2.59426">
        <ele>76</ele>
        <time>2017-05-05T08:51:14Z</time>
      </trkpt>
      <trkpt lat="48.29199" lon="2.59439">
        <ele>74</ele>
        <time>2017-05-05T08:51:24Z</time>
      </trkpt>
      <trkpt lat="48.29201" lon="2.59457">
        <ele>74</ele>
        <time>2017-05-05T08:51:34Z</time>
      </trkpt>
      <trkpt lat="48.29207" lon="2.59477">
        <ele>74</ele>
        <time>2017-05-05T08:51:52Z</time>
      </trkpt>
      <trkpt lat="48.29212" lon="2.59488">
        <ele>73</ele>
        <time>2017-05-05T08:52:06Z</time>
      </trkpt>
      <trkpt lat="48.29228" lon="2.59497">
        <ele>73</ele>
        <time>2017-05-05T08:52:20Z</time>
      </trkpt>
      <trkpt lat="48.29238" lon="2.59503">
        <ele>69</ele>
        <time>2017-05-05T08:52:30Z</time>
      </trkpt>
      <trkpt lat="48.29246" lon="2.59513">
        <ele>68</ele>
        <time>2017-05-05T08:52:38Z</time>
      </trkpt>
      <trkpt lat="48.29256" lon="2.59515">
        <ele>67</ele>
        <time>2017-05-05T08:52:58Z</time>
      </trkpt>
      <trkpt lat="48.29266" lon="2.59517">
        <ele>68</ele>
        <time>2017-05-05T08:53:22Z</time>
      </trkpt>
      <trkpt lat="48.29276" lon="2.59516">
        <ele>72</ele>
        <time>2017-05-05T08:53:38Z</time>
      </trkpt>
      <trkpt lat="48.29285" lon="2.59514">
        <ele>69</ele>
        <time>2017-05-05T08:54:13Z</time>
      </trkpt>
      <trkpt lat="48.29293" lon="2.59522">
        <ele>73</ele>
        <time>2017-05-05T08:54:29Z</time>
      </trkpt>
      <trkpt lat="48.29304" lon="2.59518">
        <ele>73</ele>
        <time>2017-05-05T08:54:41Z</time>
      </trkpt>
      <trkpt lat="48.29312" lon="2.59512">
        <ele>72</ele>
        <time>2017-05-05T08:55:05Z</time>
      </trkpt>
      <trkpt lat="48.2932" lon="2.59504">
        <ele>73</ele>
        <time>2017-05-05T08:55:17Z</time>
      </trkpt>
      <trkpt lat="48.29331" lon="2.59508">
        <ele>76</ele>
        <time>2017-05-05T08:55:31Z</time>
      </trkpt>
      <trkpt lat="48.29343" lon="2.59498">
        <ele>74</ele>
        <time>2017-05-05T08:55:41Z</time>
      </trkpt>
      <trkpt lat="48.29353" lon="2.59493">
        <ele>73</ele>
        <time>2017-05-05T08:55:51Z</time>
      </trkpt>
      <trkpt lat="48.29363" lon="2.59496">
        <ele>73</ele>
        <time>2017-05-05T08:55:59Z</time>
      </trkpt>
      <trkpt lat="48.29372" lon="2.59497">
        <ele>70</ele>
        <time>2017-05-05T08:56:19Z</time>
      </trkpt>
      <trkpt lat="48.2938" lon="2.59504">
        <ele>70</ele>
        <time>2017-05-05T08:56:33Z</time>
      </trkpt>
      <trkpt lat="48.29384" lon="2.59516">
        <ele>70</ele>
        <time>2017-05-05T08:56:53Z</time>
      </trkpt>
      <trkpt lat="48.29386" lon="2.59546">
        <ele>68</ele>
        <time>2017-05-05T08:57:15Z</time>
      </trkpt>
      <trkpt lat="48.2939" lon="2.59559">
        <ele>63</ele>
        <time>2017-05-05T08:57:27Z</time>
      </trkpt>
      <trkpt lat="48.29397" lon="2.59567">
        <ele>64</ele>
        <time>2017-05-05T08:57:41Z</time>
      </trkpt>
      <trkpt lat="48.29401" lon="2.59579">
        <ele>63</ele>
        <time>2017-05-05T08:57:53Z</time>
      </trkpt>
      <trkpt lat="48.29405" lon="2.59595">
        <ele>55</ele>
        <time>2017-05-05T08:58:10Z</time>
      </trkpt>
      <trkpt lat="48.29413" lon="2.59605">
        <ele>51</ele>
        <time>2017-05-05T08:58:26Z</time>
      </trkpt>
      <trkpt lat="48.2942" lon="2.59619">
        <ele>50</ele>
        <time>2017-05-05T08:58:38Z</time>
      </trkpt>
      <trkpt lat="48.29429" lon="2.59631">
        <ele>50</ele>
        <time>2017-05-05T08:58:48Z</time>
      </trkpt>
      <trkpt lat="48.29438" lon="2.59642">
        <ele>58</ele>
        <time>2017-05-05T08:59:00Z</time>
      </trkpt>
      <trkpt lat="48.29453" lon="2.59642">
        <ele>64</ele>
        <time>2017-05-05T08:59:18Z</time>
      </trkpt>
      <trkpt lat="48.2946" lon="2.59634">
        <ele>65</ele>
        <time>2017-05-05T08:59:34Z</time>
      </trkpt>
      <trkpt lat="48.29461" lon="2.59632">
        <ele>65</ele>
        <time>2017-05-05T08:59:38Z</time>
      </trkpt>
      <trkpt lat="48.29499" lon="2.59581">
        <ele>82</ele>
        <time>2017-05-05T09:00:45Z</time>
      </trkpt>
      <trkpt lat="48.29492" lon="2.59573">
        <ele>77</ele>
        <time>2017-05-05T09:01:15Z</time>
      </trkpt>
      <trkpt lat="48.29493" lon="2.59558">
        <ele>78</ele>
        <time>2017-05-05T09:01:37Z</time>
      </trkpt>
      <trkpt lat="48.29494" lon="2.59545">
        <ele>78</ele>
        <time>2017-05-05T09:01:57Z</time>
      </trkpt>
      <trkpt lat="48.29491" lon="2.59531">
        <ele>81</ele>
        <time>2017-05-05T09:02:11Z</time>
      </trkpt>
      <trkpt lat="48.29488" lon="2.59517">
        <ele>86</ele>
        <time>2017-05-05T09:02:33Z</time>
      </trkpt>
      <trkpt lat="48.29486" lon="2.59504">
        <ele>84</ele>
        <time>2017-05-05T09:02:51Z</time>
      </trkpt>
      <trkpt lat="48.29494" lon="2.59499">
        <ele>83</ele>
        <time>2017-05-05T09:03:25Z</time>
      </trkpt>
      <trkpt lat="48.29502" lon="2.59491">
        <ele>84</ele>
        <time>2017-05-05T09:03:33Z</time>
      </trkpt>
      <trkpt lat="48.2951" lon="2.59484">
        <ele>85</ele>
        <time>2017-05-05T09:03:47Z</time>
      </trkpt>
      <trkpt lat="48.2952" lon="2.59479">
        <ele>86</ele>
        <time>2017-05-05T09:04:05Z</time>
      </trkpt>
      <trkpt lat="48.29528" lon="2.5947">
        <ele>85</ele>
        <time>2017-05-05T09:04:15Z</time>
      </trkpt>
      <trkpt lat="48.29529" lon="2.59457">
        <ele>86</ele>
        <time>2017-05-05T09:04:29Z</time>
      </trkpt>
      <trkpt lat="48.29535" lon="2.59445">
        <ele>87</ele>
        <time>2017-05-05T09:04:49Z</time>
      </trkpt>
      <trkpt lat="48.29539" lon="2.59432">
        <ele>90</ele>
        <time>2017-05-05T09:05:05Z</time>
      </trkpt>
      <trkpt lat="48.29548" lon="2.59426">
        <ele>87</ele>
        <time>2017-05-05T09:05:22Z</time>
      </trkpt>
      <trkpt lat="48.29551" lon="2.59406">
        <ele>89</ele>
        <time>2017-05-05T09:05:42Z</time>
      </trkpt>
      <trkpt lat="48.2955" lon="2.59393">
        <ele>90</ele>
        <time>2017-05-05T09:05:54Z</time>
      </trkpt>
      <trkpt lat="48.29551" lon="2.59379">
        <ele>89</ele>
        <time>2017-05-05T09:06:04Z</time>
      </trkpt>
      <trkpt lat="48.29555" lon="2.59367">
        <ele>92</ele>
        <time>2017-05-05T09:06:12Z</time>
      </trkpt>
      <trkpt lat="48.29561" lon="2.59355">
        <ele>93</ele>
        <time>2017-05-05T09:06:26Z</time>
      </trkpt>
      <trkpt lat="48.29553" lon="2.59349">
        <ele>90</ele>
        <time>2017-05-05T09:07:00Z</time>
      </trkpt>
      <trkpt lat="48.29543" lon="2.59343">
        <ele>94</ele>
        <time>2017-05-05T09:07:20Z</time>
      </trkpt>
      <trkpt lat="48.29535" lon="2.59338">
        <ele>95</ele>
        <time>2017-05-05T09:07:32Z</time>
      </trkpt>
      <trkpt lat="48.29528" lon="2.59347">
        <ele>87</ele>
        <time>2017-05-05T09:07:46Z</time>
      </trkpt>
      <trkpt lat="48.2952" lon="2.59339">
        <ele>90</ele>
        <time>2017-05-05T09:07:58Z</time>
      </trkpt>
      <trkpt lat="48.29514" lon="2.59328">
        <ele>93</ele>
        <time>2017-05-05T09:08:14Z</time>
      </trkpt>
      <trkpt lat="48.29518" lon="2.59316">
        <ele>90</ele>
        <time>2017-05-05T09:08:26Z</time>
      </trkpt>
      <trkpt lat="48.29526" lon="2.5931">
        <ele>85</ele>
        <time>2017-05-05T09:08:42Z</time>
      </trkpt>
      <trkpt lat="48.29535" lon="2.5931">
        <ele>84</ele>
        <time>2017-05-05T09:08:50Z</time>
      </trkpt>
      <trkpt lat="48.29543" lon="2.59305">
        <ele>83</ele>
        <time>2017-05-05T09:09:02Z</time>
      </trkpt>
      <trkpt lat="48.29556" lon="2.59303">
        <ele>79</ele>
        <time>2017-05-05T09:09:39Z</time>
      </trkpt>
      <trkpt lat="48.29565" lon="2.59302">
        <ele>74</ele>
        <time>2017-05-05T09:09:49Z</time>
      </trkpt>
      <trkpt lat="48.29572" lon="2.59293">
        <ele>74</ele>
        <time>2017-05-05T09:10:03Z</time>
      </trkpt>
      <trkpt lat="48.29582" lon="2.59297">
        <ele>72</ele>
        <time>2017-05-05T09:10:13Z</time>
      </trkpt>
      <trkpt lat="48.29589" lon="2.59288">
        <ele>69</ele>
        <time>2017-05-05T09:10:27Z</time>
      </trkpt>
      <trkpt lat="48.29598" lon="2.59286">
        <ele>73</ele>
        <time>2017-05-05T09:10:39Z</time>
      </trkpt>
      <trkpt lat="48.29607" lon="2.59292">
        <ele>71</ele>
        <time>2017-05-05T09:11:21Z</time>
      </trkpt>
      <trkpt lat="48.29616" lon="2.59293">
        <ele>68</ele>
        <time>2017-05-05T09:11:29Z</time>
      </trkpt>
      <trkpt lat="48.29623" lon="2.59305">
        <ele>63</ele>
        <time>2017-05-05T09:11:39Z</time>
      </trkpt>
      <trkpt lat="48.29618" lon="2.59293">
        <ele>70</ele>
        <time>2017-05-05T09:12:57Z</time>
      </trkpt>
      <trkpt lat="48.29624" lon="2.59304">
        <ele>62</ele>
        <time>2017-05-05T09:13:12Z</time>
      </trkpt>
      <trkpt lat="48.29627" lon="2.59323">
        <ele>74</ele>
        <time>2017-05-05T09:14:52Z</time>
      </trkpt>
      <trkpt lat="48.29629" lon="2.59336">
        <ele>72</ele>
        <time>2017-05-05T09:15:00Z</time>
      </trkpt>
      <trkpt lat="48.2963" lon="2.59351">
        <ele>68</ele>
        <time>2017-05-05T09:15:08Z</time>
      </trkpt>
      <trkpt lat="48.29629" lon="2.59365">
        <ele>62</ele>
        <time>2017-05-05T09:15:18Z</time>
      </trkpt>
      <trkpt lat="48.2963" lon="2.5938">
        <ele>65</ele>
        <time>2017-05-05T09:15:26Z</time>
      </trkpt>
      <trkpt lat="48.29628" lon="2.59393">
        <ele>63</ele>
        <time>2017-05-05T09:15:36Z</time>
      </trkpt>
      <trkpt lat="48.29627" lon="2.59406">
        <ele>60</ele>
        <time>2017-05-05T09:15:50Z</time>
      </trkpt>
      <trkpt lat="48.29628" lon="2.59419">
        <ele>58</ele>
        <time>2017-05-05T09:16:00Z</time>
      </trkpt>
      <trkpt lat="48.2963" lon="2.59433">
        <ele>57</ele>
        <time>2017-05-05T09:16:12Z</time>
      </trkpt>
      <trkpt lat="48.29636" lon="2.59445">
        <ele>54</ele>
        <time>2017-05-05T09:16:26Z</time>
      </trkpt>
      <trkpt lat="48.29642" lon="2.59455">
        <ele>55</ele>
        <time>2017-05-05T09:16:34Z</time>
      </trkpt>
      <trkpt lat="48.29651" lon="2.59458">
        <ele>55</ele>
        <time>2017-05-05T09:16:42Z</time>
      </trkpt>
      <trkpt lat="48.29658" lon="2.59466">
        <ele>55</ele>
        <time>2017-05-05T09:16:52Z</time>
      </trkpt>
      <trkpt lat="48.29664" lon="2.59476">
        <ele>55</ele>
        <time>2017-05-05T09:17:02Z</time>
      </trkpt>
      <trkpt lat="48.2967" lon="2.59487">
        <ele>59</ele>
        <time>2017-05-05T09:17:13Z</time>
      </trkpt>
      <trkpt lat="48.29673" lon="2.59501">
        <ele>52</ele>
        <time>2017-05-05T09:17:27Z</time>
      </trkpt>
      <trkpt lat="48.29678" lon="2.59514">
        <ele>49</ele>
        <time>2017-05-05T09:17:37Z</time>
      </trkpt>
      <trkpt lat="48.29686" lon="2.59525">
        <ele>54</ele>
        <time>2017-05-05T09:17:47Z</time>
      </trkpt>
      <trkpt lat="48.29694" lon="2.59518">
        <ele>52</ele>
        <time>2017-05-05T09:18:01Z</time>
      </trkpt>
      <trkpt lat="48.29702" lon="2.5951">
        <ele>54</ele>
        <time>2017-05-05T09:18:13Z</time>
      </trkpt>
      <trkpt lat="48.29711" lon="2.59507">
        <ele>56</ele>
        <time>2017-05-05T09:18:25Z</time>
      </trkpt>
      <trkpt lat="48.2972" lon="2.59502">
        <ele>51</ele>
        <time>2017-05-05T09:18:35Z</time>
      </trkpt>
      <trkpt lat="48.29729" lon="2.59495">
        <ele>49</ele>
        <time>2017-05-05T09:18:47Z</time>
      </trkpt>
      <trkpt lat="48.29737" lon="2.59489">
        <ele>50</ele>
        <time>2017-05-05T09:18:57Z</time>
      </trkpt>
      <trkpt lat="48.29746" lon="2.59483">
        <ele>48</ele>
        <time>2017-05-05T09:19:09Z</time>
      </trkpt>
      <trkpt lat="48.29753" lon="2.59475">
        <ele>49</ele>
        <time>2017-05-05T09:19:19Z</time>
      </trkpt>
      <trkpt lat="48.29762" lon="2.59462">
        <ele>53</ele>
        <time>2017-05-05T09:19:31Z</time>
      </trkpt>
      <trkpt lat="48.2977" lon="2.59457">
        <ele>55</ele>
        <time>2017-05-05T09:19:39Z</time>
      </trkpt>
      <trkpt lat="48.29778" lon="2.59452">
        <ele>58</ele>
        <time>2017-05-05T09:19:47Z</time>
      </trkpt>
      <trkpt lat="48.29784" lon="2.59442">
        <ele>61</ele>
        <time>2017-05-05T09:19:57Z</time>
      </trkpt>
      <trkpt lat="48.2979" lon="2.59432">
        <ele>61</ele>
        <time>2017-05-05T09:20:07Z</time>
      </trkpt>
      <trkpt lat="48.29798" lon="2.59421">
        <ele>61</ele>
        <time>2017-05-05T09:20:19Z</time>
      </trkpt>
      <trkpt lat="48.29807" lon="2.59416">
        <ele>63</ele>
        <time>2017-05-05T09:20:29Z</time>
      </trkpt>
      <trkpt lat="48.29815" lon="2.59411">
        <ele>65</ele>
        <time>2017-05-05T09:20:37Z</time>
      </trkpt>
      <trkpt lat="48.29827" lon="2.59401">
        <ele>69</ele>
        <time>2017-05-05T09:20:51Z</time>
      </trkpt>
      <trkpt lat="48.29838" lon="2.59393">
        <ele>69</ele>
        <time>2017-05-05T09:21:01Z</time>
      </trkpt>
      <trkpt lat="48.29846" lon="2.59385">
        <ele>69</ele>
        <time>2017-05-05T09:21:11Z</time>
      </trkpt>
      <trkpt lat="48.29855" lon="2.59379">
        <ele>67</ele>
        <time>2017-05-05T09:21:27Z</time>
      </trkpt>
      <trkpt lat="48.29864" lon="2.59371">
        <ele>69</ele>
        <time>2017-05-05T09:21:42Z</time>
      </trkpt>
      <trkpt lat="48.29871" lon="2.59363">
        <ele>68</ele>
        <time>2017-05-05T09:21:56Z</time>
      </trkpt>
      <trkpt lat="48.29879" lon="2.59358">
        <ele>70</ele>
        <time>2017-05-05T09:22:06Z</time>
      </trkpt>
      <trkpt lat="48.29892" lon="2.5935">
        <ele>72</ele>
        <time>2017-05-05T09:22:20Z</time>
      </trkpt>
      <trkpt lat="48.29902" lon="2.59344">
        <ele>77</ele>
        <time>2017-05-05T09:22:30Z</time>
      </trkpt>
      <trkpt lat="48.29911" lon="2.59336">
        <ele>79</ele>
        <time>2017-05-05T09:22:44Z</time>
      </trkpt>
      <trkpt lat="48.29919" lon="2.59325">
        <ele>79</ele>
        <time>2017-05-05T09:23:00Z</time>
      </trkpt>
      <trkpt lat="48.29928" lon="2.59316">
        <ele>82</ele>
        <time>2017-05-05T09:23:10Z</time>
      </trkpt>
      <trkpt lat="48.29934" lon="2.59306">
        <ele>78</ele>
        <time>2017-05-05T09:23:24Z</time>
      </trkpt>
      <trkpt lat="48.29941" lon="2.59296">
        <ele>77</ele>
        <time>2017-05-05T09:23:36Z</time>
      </trkpt>
      <trkpt lat="48.29949" lon="2.59282">
        <ele>76</ele>
        <time>2017-05-05T09:23:50Z</time>
      </trkpt>
      <trkpt lat="48.29954" lon="2.59268">
        <ele>73</ele>
        <time>2017-05-05T09:24:02Z</time>
      </trkpt>
      <trkpt lat="48.29963" lon="2.59259">
        <ele>74</ele>
        <time>2017-05-05T09:24:12Z</time>
      </trkpt>
      <trkpt lat="48.2997" lon="2.59251">
        <ele>74</ele>
        <time>2017-05-05T09:24:20Z</time>
      </trkpt>
      <trkpt lat="48.29977" lon="2.59241">
        <ele>74</ele>
        <time>2017-05-05T09:24:30Z</time>
      </trkpt>
      <trkpt lat="48.29984" lon="2.59232">
        <ele>71</ele>
        <time>2017-05-05T09:24:40Z</time>
      </trkpt>
      <trkpt lat="48.29993" lon="2.59222">
        <ele>75</ele>
        <time>2017-05-05T09:24:50Z</time>
      </trkpt>
      <trkpt lat="48.30001" lon="2.59215">
        <ele>72</ele>
        <time>2017-05-05T09:25:00Z</time>
      </trkpt>
      <trkpt lat="48.30008" lon="2.59206">
        <ele>67</ele>
        <time>2017-05-05T09:25:14Z</time>
      </trkpt>
      <trkpt lat="48.30017" lon="2.59197">
        <ele>67</ele>
        <time>2017-05-05T09:25:24Z</time>
      </trkpt>
      <trkpt lat="48.30025" lon="2.59188">
        <ele>69</ele>
        <time>2017-05-05T09:25:34Z</time>
      </trkpt>
      <trkpt lat="48.30033" lon="2.59181">
        <ele>66</ele>
        <time>2017-05-05T09:25:43Z</time>
      </trkpt>
      <trkpt lat="48.30041" lon="2.59174">
        <ele>65</ele>
        <time>2017-05-05T09:25:51Z</time>
      </trkpt>
      <trkpt lat="48.30049" lon="2.59166">
        <ele>64</ele>
        <time>2017-05-05T09:26:01Z</time>
      </trkpt>
      <trkpt lat="48.30061" lon="2.59155">
        <ele>66</ele>
        <time>2017-05-05T09:26:15Z</time>
      </trkpt>
      <trkpt lat="48.30074" lon="2.59145">
        <ele>66</ele>
        <time>2017-05-05T09:26:29Z</time>
      </trkpt>
      <trkpt lat="48.30081" lon="2.59137">
        <ele>65</ele>
        <time>2017-05-05T09:26:39Z</time>
      </trkpt>
      <trkpt lat="48.30088" lon="2.59128">
        <ele>66</ele>
        <time>2017-05-05T09:26:47Z</time>
      </trkpt>
      <trkpt lat="48.30096" lon="2.59121">
        <ele>66</ele>
        <time>2017-05-05T09:26:55Z</time>
      </trkpt>
      <trkpt lat="48.30104" lon="2.59112">
        <ele>64</ele>
        <time>2017-05-05T09:27:09Z</time>
      </trkpt>
      <trkpt lat="48.30113" lon="2.59109">
        <ele>74</ele>
        <time>2017-05-05T09:27:47Z</time>
      </trkpt>
      <trkpt lat="48.30122" lon="2.591">
        <ele>75</ele>
        <time>2017-05-05T09:34:51Z</time>
      </trkpt>
      <trkpt lat="48.30132" lon="2.59089">
        <ele>70</ele>
        <time>2017-05-05T09:35:03Z</time>
      </trkpt>
      <trkpt lat="48.30145" lon="2.5908">
        <ele>68</ele>
        <time>2017-05-05T09:35:19Z</time>
      </trkpt>
      <trkpt lat="48.30153" lon="2.59071">
        <ele>69</ele>
        <time>2017-05-05T09:35:33Z</time>
      </trkpt>
      <trkpt lat="48.30161" lon="2.59064">
        <ele>67</ele>
        <time>2017-05-05T09:35:43Z</time>
      </trkpt>
      <trkpt lat="48.3017" lon="2.59056">
        <ele>68</ele>
        <time>2017-05-05T09:35:53Z</time>
      </trkpt>
      <trkpt lat="48.30179" lon="2.59048">
        <ele>69</ele>
        <time>2017-05-05T09:36:03Z</time>
      </trkpt>
      <trkpt lat="48.30187" lon="2.59041">
        <ele>68</ele>
        <time>2017-05-05T09:36:13Z</time>
      </trkpt>
      <trkpt lat="48.30198" lon="2.59034">
        <ele>70</ele>
        <time>2017-05-05T09:36:25Z</time>
      </trkpt>
      <trkpt lat="48.30207" lon="2.59028">
        <ele>74</ele>
        <time>2017-05-05T09:36:35Z</time>
      </trkpt>
      <trkpt lat="48.30215" lon="2.59023">
        <ele>76</ele>
        <time>2017-05-05T09:36:43Z</time>
      </trkpt>
      <trkpt lat="48.30224" lon="2.59014">
        <ele>76</ele>
        <time>2017-05-05T09:36:53Z</time>
      </trkpt>
      <trkpt lat="48.30234" lon="2.59009">
        <ele>79</ele>
        <time>2017-05-05T09:37:01Z</time>
      </trkpt>
      <trkpt lat="48.30241" lon="2.59001">
        <ele>77</ele>
        <time>2017-05-05T09:37:09Z</time>
      </trkpt>
      <trkpt lat="48.3025" lon="2.58992">
        <ele>77</ele>
        <time>2017-05-05T09:37:19Z</time>
      </trkpt>
      <trkpt lat="48.30265" lon="2.58982">
        <ele>78</ele>
        <time>2017-05-05T09:37:35Z</time>
      </trkpt>
      <trkpt lat="48.30274" lon="2.5897">
        <ele>76</ele>
        <time>2017-05-05T09:37:47Z</time>
      </trkpt>
      <trkpt lat="48.30283" lon="2.58964">
        <ele>75</ele>
        <time>2017-05-05T09:37:57Z</time>
      </trkpt>
      <trkpt lat="48.30291" lon="2.58955">
        <ele>77</ele>
        <time>2017-05-05T09:38:06Z</time>
      </trkpt>
      <trkpt lat="48.30299" lon="2.5895">
        <ele>79</ele>
        <time>2017-05-05T09:38:13Z</time>
      </trkpt>
      <trkpt lat="48.30307" lon="2.58939">
        <ele>76</ele>
        <time>2017-05-05T09:38:26Z</time>
      </trkpt>
      <trkpt lat="48.30315" lon="2.58932">
        <ele>77</ele>
        <time>2017-05-05T09:38:34Z</time>
      </trkpt>
      <trkpt lat="48.30323" lon="2.58922">
        <ele>78</ele>
        <time>2017-05-05T09:38:44Z</time>
      </trkpt>
      <trkpt lat="48.30331" lon="2.58912">
        <ele>78</ele>
        <time>2017-05-05T09:38:54Z</time>
      </trkpt>
      <trkpt lat="48.30339" lon="2.58904">
        <ele>74</ele>
        <time>2017-05-05T09:39:04Z</time>
      </trkpt>
      <trkpt lat="48.30347" lon="2.58896">
        <ele>73</ele>
        <time>2017-05-05T09:39:14Z</time>
      </trkpt>
      <trkpt lat="48.30357" lon="2.58885">
        <ele>73</ele>
        <time>2017-05-05T09:39:28Z</time>
      </trkpt>
      <trkpt lat="48.30368" lon="2.58879">
        <ele>77</ele>
        <time>2017-05-05T09:39:38Z</time>
      </trkpt>
      <trkpt lat="48.30375" lon="2.5887">
        <ele>80</ele>
        <time>2017-05-05T09:39:48Z</time>
      </trkpt>
      <trkpt lat="48.30383" lon="2.58862">
        <ele>83</ele>
        <time>2017-05-05T09:40:00Z</time>
      </trkpt>
      <trkpt lat="48.3039" lon="2.5885">
        <ele>82</ele>
        <time>2017-05-05T09:40:14Z</time>
      </trkpt>
      <trkpt lat="48.30386" lon="2.58836">
        <ele>83</ele>
        <time>2017-05-05T09:40:26Z</time>
      </trkpt>
      <trkpt lat="48.3038" lon="2.58822">
        <ele>83</ele>
        <time>2017-05-05T09:40:42Z</time>
      </trkpt>
      <trkpt lat="48.30375" lon="2.58809">
        <ele>82</ele>
        <time>2017-05-05T09:40:54Z</time>
      </trkpt>
      <trkpt lat="48.30369" lon="2.58799">
        <ele>82</ele>
        <time>2017-05-05T09:41:02Z</time>
      </trkpt>
      <trkpt lat="48.30364" lon="2.58787">
        <ele>84</ele>
        <time>2017-05-05T09:41:10Z</time>
      </trkpt>
      <trkpt lat="48.30356" lon="2.58773">
        <ele>84</ele>
        <time>2017-05-05T09:41:22Z</time>
      </trkpt>
      <trkpt lat="48.30349" lon="2.58758">
        <ele>83</ele>
        <time>2017-05-05T09:41:34Z</time>
      </trkpt>
      <trkpt lat="48.30344" lon="2.58746">
        <ele>83</ele>
        <time>2017-05-05T09:41:44Z</time>
      </trkpt>
      <trkpt lat="48.30338" lon="2.58733">
        <ele>85</ele>
        <time>2017-05-05T09:41:52Z</time>
      </trkpt>
      <trkpt lat="48.30332" lon="2.58719">
        <ele>84</ele>
        <time>2017-05-05T09:42:03Z</time>
      </trkpt>
      <trkpt lat="48.30328" lon="2.58704">
        <ele>82</ele>
        <time>2017-05-05T09:42:15Z</time>
      </trkpt>
      <trkpt lat="48.30323" lon="2.58688">
        <ele>79</ele>
        <time>2017-05-05T09:42:29Z</time>
      </trkpt>
      <trkpt lat="48.30318" lon="2.58671">
        <ele>78</ele>
        <time>2017-05-05T09:42:41Z</time>
      </trkpt>
      <trkpt lat="48.30314" lon="2.58659">
        <ele>77</ele>
        <time>2017-05-05T09:42:51Z</time>
      </trkpt>
      <trkpt lat="48.30311" lon="2.58645">
        <ele>76</ele>
        <time>2017-05-05T09:42:59Z</time>
      </trkpt>
      <trkpt lat="48.30309" lon="2.58632">
        <ele>74</ele>
        <time>2017-05-05T09:43:07Z</time>
      </trkpt>
      <trkpt lat="48.30304" lon="2.58618">
        <ele>73</ele>
        <time>2017-05-05T09:43:17Z</time>
      </trkpt>
      <trkpt lat="48.303" lon="2.58603">
        <ele>73</ele>
        <time>2017-05-05T09:43:27Z</time>
      </trkpt>
      <trkpt lat="48.30298" lon="2.58589">
        <ele>75</ele>
        <time>2017-05-05T09:43:33Z</time>
      </trkpt>
      <trkpt lat="48.30295" lon="2.58574">
        <ele>79</ele>
        <time>2017-05-05T09:43:41Z</time>
      </trkpt>
      <trkpt lat="48.30288" lon="2.58559">
        <ele>80</ele>
        <time>2017-05-05T09:43:51Z</time>
      </trkpt>
      <trkpt lat="48.30284" lon="2.58547">
        <ele>84</ele>
        <time>2017-05-05T09:44:03Z</time>
      </trkpt>
      <trkpt lat="48.30279" lon="2.58533">
        <ele>82</ele>
        <time>2017-05-05T09:44:15Z</time>
      </trkpt>
      <trkpt lat="48.30272" lon="2.58521">
        <ele>81</ele>
        <time>2017-05-05T09:44:25Z</time>
      </trkpt>
      <trkpt lat="48.30258" lon="2.58509">
        <ele>83</ele>
        <time>2017-05-05T09:44:39Z</time>
      </trkpt>
      <trkpt lat="48.30248" lon="2.58505">
        <ele>80</ele>
        <time>2017-05-05T09:44:51Z</time>
      </trkpt>
      <trkpt lat="48.30239" lon="2.58502">
        <ele>80</ele>
        <time>2017-05-05T09:44:59Z</time>
      </trkpt>
      <trkpt lat="48.3023" lon="2.58496">
        <ele>81</ele>
        <time>2017-05-05T09:45:07Z</time>
      </trkpt>
      <trkpt lat="48.30221" lon="2.58492">
        <ele>79</ele>
        <time>2017-05-05T09:45:15Z</time>
      </trkpt>
      <trkpt lat="48.30213" lon="2.58487">
        <ele>80</ele>
        <time>2017-05-05T09:45:21Z</time>
      </trkpt>
      <trkpt lat="48.30203" lon="2.58481">
        <ele>80</ele>
        <time>2017-05-05T09:45:29Z</time>
      </trkpt>
      <trkpt lat="48.30194" lon="2.58476">
        <ele>81</ele>
        <time>2017-05-05T09:45:37Z</time>
      </trkpt>
      <trkpt lat="48.30183" lon="2.58469">
        <ele>81</ele>
        <time>2017-05-05T09:45:49Z</time>
      </trkpt>
      <trkpt lat="48.30175" lon="2.58464">
        <ele>78</ele>
        <time>2017-05-05T09:45:57Z</time>
      </trkpt>
      <trkpt lat="48.30167" lon="2.58459">
        <ele>78</ele>
        <time>2017-05-05T09:46:09Z</time>
      </trkpt>
      <trkpt lat="48.30161" lon="2.58472">
        <ele>75</ele>
        <time>2017-05-05T09:46:24Z</time>
      </trkpt>
      <trkpt lat="48.30154" lon="2.58483">
        <ele>77</ele>
        <time>2017-05-05T09:46:44Z</time>
      </trkpt>
      <trkpt lat="48.30153" lon="2.58497">
        <ele>76</ele>
        <time>2017-05-05T09:46:52Z</time>
      </trkpt>
      <trkpt lat="48.30151" lon="2.58511">
        <ele>76</ele>
        <time>2017-05-05T09:47:00Z</time>
      </trkpt>
      <trkpt lat="48.3015" lon="2.58525">
        <ele>75</ele>
        <time>2017-05-05T09:47:08Z</time>
      </trkpt>
      <trkpt lat="48.30158" lon="2.58531">
        <ele>76</ele>
        <time>2017-05-05T09:47:16Z</time>
      </trkpt>
      <trkpt lat="48.30163" lon="2.58543">
        <ele>76</ele>
        <time>2017-05-05T09:47:26Z</time>
      </trkpt>
      <trkpt lat="48.30164" lon="2.58556">
        <ele>74</ele>
        <time>2017-05-05T09:47:34Z</time>
      </trkpt>
      <trkpt lat="48.30172" lon="2.58569">
        <ele>68</ele>
        <time>2017-05-05T09:47:48Z</time>
      </trkpt>
      <trkpt lat="48.30172" lon="2.58583">
        <ele>68</ele>
        <time>2017-05-05T09:47:58Z</time>
      </trkpt>
      <trkpt lat="48.30163" lon="2.58583">
        <ele>70</ele>
        <time>2017-05-05T09:48:08Z</time>
      </trkpt>
      <trkpt lat="48.30154" lon="2.58573">
        <ele>71</ele>
        <time>2017-05-05T09:48:18Z</time>
      </trkpt>
      <trkpt lat="48.30141" lon="2.5855">
        <ele>74</ele>
        <time>2017-05-05T09:48:36Z</time>
      </trkpt>
      <trkpt lat="48.30133" lon="2.58544">
        <ele>76</ele>
        <time>2017-05-05T09:48:44Z</time>
      </trkpt>
      <trkpt lat="48.30124" lon="2.58542">
        <ele>75</ele>
        <time>2017-05-05T09:48:58Z</time>
      </trkpt>
      <trkpt lat="48.30115" lon="2.58535">
        <ele>74</ele>
        <time>2017-05-05T09:49:12Z</time>
      </trkpt>
      <trkpt lat="48.30104" lon="2.5852">
        <ele>77</ele>
        <time>2017-05-05T09:49:30Z</time>
      </trkpt>
      <trkpt lat="48.30096" lon="2.58508">
        <ele>73</ele>
        <time>2017-05-05T09:49:42Z</time>
      </trkpt>
      <trkpt lat="48.30086" lon="2.58486">
        <ele>77</ele>
        <time>2017-05-05T09:50:08Z</time>
      </trkpt>
      <trkpt lat="48.30077" lon="2.58479">
        <ele>78</ele>
        <time>2017-05-05T09:50:16Z</time>
      </trkpt>
      <trkpt lat="48.30066" lon="2.58466">
        <ele>77</ele>
        <time>2017-05-05T09:50:38Z</time>
      </trkpt>
      <trkpt lat="48.30055" lon="2.58463">
        <ele>74</ele>
        <time>2017-05-05T09:50:49Z</time>
      </trkpt>
      <trkpt lat="48.30044" lon="2.58463">
        <ele>72</ele>
        <time>2017-05-05T09:50:57Z</time>
      </trkpt>
      <trkpt lat="48.30035" lon="2.58461">
        <ele>73</ele>
        <time>2017-05-05T09:51:07Z</time>
      </trkpt>
      <trkpt lat="48.30026" lon="2.58466">
        <ele>73</ele>
        <time>2017-05-05T09:51:17Z</time>
      </trkpt>
      <trkpt lat="48.30018" lon="2.58474">
        <ele>73</ele>
        <time>2017-05-05T09:51:29Z</time>
      </trkpt>
      <trkpt lat="48.3001" lon="2.58484">
        <ele>75</ele>
        <time>2017-05-05T09:51:39Z</time>
      </trkpt>
      <trkpt lat="48.30002" lon="2.58495">
        <ele>75</ele>
        <time>2017-05-05T09:51:51Z</time>
      </trkpt>
      <trkpt lat="48.29995" lon="2.58505">
        <ele>74</ele>
        <time>2017-05-05T09:52:05Z</time>
      </trkpt>
      <trkpt lat="48.29989" lon="2.58515">
        <ele>72</ele>
        <time>2017-05-05T09:52:21Z</time>
      </trkpt>
      <trkpt lat="48.29982" lon="2.58531">
        <ele>70</ele>
        <time>2017-05-05T09:53:19Z</time>
      </trkpt>
      <trkpt lat="48.29968" lon="2.58537">
        <ele>67</ele>
        <time>2017-05-05T09:53:33Z</time>
      </trkpt>
      <trkpt lat="48.29959" lon="2.58541">
        <ele>66</ele>
        <time>2017-05-05T09:53:47Z</time>
      </trkpt>
      <trkpt lat="48.29949" lon="2.58549">
        <ele>68</ele>
        <time>2017-05-05T09:54:03Z</time>
      </trkpt>
      <trkpt lat="48.29941" lon="2.58557">
        <ele>71</ele>
        <time>2017-05-05T09:54:11Z</time>
      </trkpt>
      <trkpt lat="48.29936" lon="2.58569">
        <ele>73</ele>
        <time>2017-05-05T09:54:27Z</time>
      </trkpt>
      <trkpt lat="48.29933" lon="2.58582">
        <ele>74</ele>
        <time>2017-05-05T09:54:35Z</time>
      </trkpt>
      <trkpt lat="48.29929" lon="2.58597">
        <ele>75</ele>
        <time>2017-05-05T09:54:47Z</time>
      </trkpt>
      <trkpt lat="48.29924" lon="2.58608">
        <ele>75</ele>
        <time>2017-05-05T09:54:55Z</time>
      </trkpt>
      <trkpt lat="48.29922" lon="2.58626">
        <ele>74</ele>
        <time>2017-05-05T09:55:08Z</time>
      </trkpt>
      <trkpt lat="48.29918" lon="2.58641">
        <ele>71</ele>
        <time>2017-05-05T09:55:18Z</time>
      </trkpt>
      <trkpt lat="48.29914" lon="2.58653">
        <ele>70</ele>
        <time>2017-05-05T09:55:30Z</time>
      </trkpt>
      <trkpt lat="48.29908" lon="2.58663">
        <ele>68</ele>
        <time>2017-05-05T09:55:40Z</time>
      </trkpt>
      <trkpt lat="48.29899" lon="2.58671">
        <ele>72</ele>
        <time>2017-05-05T09:55:50Z</time>
      </trkpt>
      <trkpt lat="48.29891" lon="2.5868">
        <ele>72</ele>
        <time>2017-05-05T09:56:02Z</time>
      </trkpt>
      <trkpt lat="48.29882" lon="2.58689">
        <ele>74</ele>
        <time>2017-05-05T09:56:12Z</time>
      </trkpt>
      <trkpt lat="48.29875" lon="2.587">
        <ele>74</ele>
        <time>2017-05-05T09:56:22Z</time>
      </trkpt>
      <trkpt lat="48.29868" lon="2.58709">
        <ele>73</ele>
        <time>2017-05-05T09:56:34Z</time>
      </trkpt>
      <trkpt lat="48.29861" lon="2.5872">
        <ele>77</ele>
        <time>2017-05-05T09:56:48Z</time>
      </trkpt>
      <trkpt lat="48.29857" lon="2.58733">
        <ele>73</ele>
        <time>2017-05-05T09:57:00Z</time>
      </trkpt>
      <trkpt lat="48.29854" lon="2.58746">
        <ele>72</ele>
        <time>2017-05-05T09:57:10Z</time>
      </trkpt>
      <trkpt lat="48.2985" lon="2.5876">
        <ele>72</ele>
        <time>2017-05-05T09:57:20Z</time>
      </trkpt>
      <trkpt lat="48.29844" lon="2.58773">
        <ele>72</ele>
        <time>2017-05-05T09:57:28Z</time>
      </trkpt>
      <trkpt lat="48.29843" lon="2.58786">
        <ele>69</ele>
        <time>2017-05-05T09:57:38Z</time>
      </trkpt>
      <trkpt lat="48.29839" lon="2.588">
        <ele>70</ele>
        <time>2017-05-05T09:57:48Z</time>
      </trkpt>
      <trkpt lat="48.29837" lon="2.58814">
        <ele>67</ele>
        <time>2017-05-05T09:57:58Z</time>
      </trkpt>
      <trkpt lat="48.29833" lon="2.58826">
        <ele>67</ele>
        <time>2017-05-05T09:58:06Z</time>
      </trkpt>
      <trkpt lat="48.29825" lon="2.58838">
        <ele>67</ele>
        <time>2017-05-05T09:58:16Z</time>
      </trkpt>
      <trkpt lat="48.29816" lon="2.58841">
        <ele>67</ele>
        <time>2017-05-05T09:58:26Z</time>
      </trkpt>
      <trkpt lat="48.2981" lon="2.58851">
        <ele>66</ele>
        <time>2017-05-05T09:58:34Z</time>
      </trkpt>
      <trkpt lat="48.29801" lon="2.58861">
        <ele>69</ele>
        <time>2017-05-05T09:58:44Z</time>
      </trkpt>
      <trkpt lat="48.29799" lon="2.58876">
        <ele>68</ele>
        <time>2017-05-05T09:58:54Z</time>
      </trkpt>
      <trkpt lat="48.29798" lon="2.58884">
        <ele>70</ele>
        <time>2017-05-05T09:58:58Z</time>
      </trkpt>
      <trkpt lat="48.29636" lon="2.5831">
        <ele>57</ele>
        <time>2017-05-05T10:08:36Z</time>
      </trkpt>
      <trkpt lat="48.29631" lon="2.58298">
        <ele>62</ele>
        <time>2017-05-05T10:08:43Z</time>
      </trkpt>
      <trkpt lat="48.29623" lon="2.58293">
        <ele>75</ele>
        <time>2017-05-05T10:09:17Z</time>
      </trkpt>
      <trkpt lat="48.29624" lon="2.58294">
        <ele>75</ele>
        <time>2017-05-05T10:09:19Z</time>
      </trkpt>
      <trkpt lat="48.29646" lon="2.58289">
        <ele>31</ele>
        <time>2017-05-05T10:10:58Z</time>
      </trkpt>
      <trkpt lat="48.29623" lon="2.58306">
        <ele>96</ele>
        <time>2017-05-05T10:11:00Z</time>
      </trkpt>
      <trkpt lat="48.29619" lon="2.58319">
        <ele>78</ele>
        <time>2017-05-05T10:11:27Z</time>
      </trkpt>
      <trkpt lat="48.29614" lon="2.5833">
        <ele>77</ele>
        <time>2017-05-05T10:11:35Z</time>
      </trkpt>
      <trkpt lat="48.29612" lon="2.58343">
        <ele>76</ele>
        <time>2017-05-05T10:11:43Z</time>
      </trkpt>
      <trkpt lat="48.29612" lon="2.58356">
        <ele>74</ele>
        <time>2017-05-05T10:11:53Z</time>
      </trkpt>
      <trkpt lat="48.29613" lon="2.58343">
        <ele>70</ele>
        <time>2017-05-05T10:12:31Z</time>
      </trkpt>
      <trkpt lat="48.29617" lon="2.5833">
        <ele>67</ele>
        <time>2017-05-05T10:12:43Z</time>
      </trkpt>
      <trkpt lat="48.29618" lon="2.58314">
        <ele>71</ele>
        <time>2017-05-05T10:12:57Z</time>
      </trkpt>
      <trkpt lat="48.29622" lon="2.58298">
        <ele>74</ele>
        <time>2017-05-05T10:13:11Z</time>
      </trkpt>
      <trkpt lat="48.29613" lon="2.58288">
        <ele>75</ele>
        <time>2017-05-05T10:13:25Z</time>
      </trkpt>
      <trkpt lat="48.29604" lon="2.58281">
        <ele>70</ele>
        <time>2017-05-05T10:13:39Z</time>
      </trkpt>
      <trkpt lat="48.29595" lon="2.58275">
        <ele>71</ele>
        <time>2017-05-05T10:13:51Z</time>
      </trkpt>
      <trkpt lat="48.29587" lon="2.58268">
        <ele>73</ele>
        <time>2017-05-05T10:13:59Z</time>
      </trkpt>
      <trkpt lat="48.29579" lon="2.58256">
        <ele>76</ele>
        <time>2017-05-05T10:14:07Z</time>
      </trkpt>
      <trkpt lat="48.29574" lon="2.58245">
        <ele>74</ele>
        <time>2017-05-05T10:14:15Z</time>
      </trkpt>
      <trkpt lat="48.29569" lon="2.5823">
        <ele>72</ele>
        <time>2017-05-05T10:14:29Z</time>
      </trkpt>
      <trkpt lat="48.29564" lon="2.58218">
        <ele>73</ele>
        <time>2017-05-05T10:14:42Z</time>
      </trkpt>
      <trkpt lat="48.29558" lon="2.58207">
        <ele>73</ele>
        <time>2017-05-05T10:14:50Z</time>
      </trkpt>
      <trkpt lat="48.29553" lon="2.58195">
        <ele>72</ele>
        <time>2017-05-05T10:14:58Z</time>
      </trkpt>
      <trkpt lat="48.29542" lon="2.58179">
        <ele>71</ele>
        <time>2017-05-05T10:15:20Z</time>
      </trkpt>
      <trkpt lat="48.29538" lon="2.58166">
        <ele>69</ele>
        <time>2017-05-05T10:15:26Z</time>
      </trkpt>
      <trkpt lat="48.29531" lon="2.58154">
        <ele>71</ele>
        <time>2017-05-05T10:15:34Z</time>
      </trkpt>
      <trkpt lat="48.29525" lon="2.58142">
        <ele>72</ele>
        <time>2017-05-05T10:15:44Z</time>
      </trkpt>
      <trkpt lat="48.29518" lon="2.5813">
        <ele>73</ele>
        <time>2017-05-05T10:15:54Z</time>
      </trkpt>
      <trkpt lat="48.29511" lon="2.58122">
        <ele>74</ele>
        <time>2017-05-05T10:16:02Z</time>
      </trkpt>
      <trkpt lat="48.29504" lon="2.58111">
        <ele>73</ele>
        <time>2017-05-05T10:16:12Z</time>
      </trkpt>
      <trkpt lat="48.29495" lon="2.58099">
        <ele>74</ele>
        <time>2017-05-05T10:16:24Z</time>
      </trkpt>
      <trkpt lat="48.29488" lon="2.58089">
        <ele>74</ele>
        <time>2017-05-05T10:16:34Z</time>
      </trkpt>
      <trkpt lat="48.2948" lon="2.5808">
        <ele>75</ele>
        <time>2017-05-05T10:16:44Z</time>
      </trkpt>
      <trkpt lat="48.29474" lon="2.58069">
        <ele>77</ele>
        <time>2017-05-05T10:16:52Z</time>
      </trkpt>
      <trkpt lat="48.29467" lon="2.58056">
        <ele>81</ele>
        <time>2017-05-05T10:17:02Z</time>
      </trkpt>
      <trkpt lat="48.2946" lon="2.58046">
        <ele>83</ele>
        <time>2017-05-05T10:17:12Z</time>
      </trkpt>
      <trkpt lat="48.29452" lon="2.58036">
        <ele>80</ele>
        <time>2017-05-05T10:17:26Z</time>
      </trkpt>
      <trkpt lat="48.29444" lon="2.58028">
        <ele>82</ele>
        <time>2017-05-05T10:17:36Z</time>
      </trkpt>
      <trkpt lat="48.29436" lon="2.58019">
        <ele>78</ele>
        <time>2017-05-05T10:17:50Z</time>
      </trkpt>
      <trkpt lat="48.29429" lon="2.58007">
        <ele>75</ele>
        <time>2017-05-05T10:18:04Z</time>
      </trkpt>
      <trkpt lat="48.29429" lon="2.57994">
        <ele>74</ele>
        <time>2017-05-05T10:18:14Z</time>
      </trkpt>
      <trkpt lat="48.29429" lon="2.57979">
        <ele>73</ele>
        <time>2017-05-05T10:18:28Z</time>
      </trkpt>
      <trkpt lat="48.29428" lon="2.57966">
        <ele>73</ele>
        <time>2017-05-05T10:18:40Z</time>
      </trkpt>
      <trkpt lat="48.29427" lon="2.57947">
        <ele>79</ele>
        <time>2017-05-05T10:18:55Z</time>
      </trkpt>
      <trkpt lat="48.29428" lon="2.57934">
        <ele>85</ele>
        <time>2017-05-05T10:19:09Z</time>
      </trkpt>
      <trkpt lat="48.29427" lon="2.57919">
        <ele>86</ele>
        <time>2017-05-05T10:19:21Z</time>
      </trkpt>
      <trkpt lat="48.29431" lon="2.57903">
        <ele>86</ele>
        <time>2017-05-05T10:19:45Z</time>
      </trkpt>
      <trkpt lat="48.29438" lon="2.57893">
        <ele>83</ele>
        <time>2017-05-05T10:20:07Z</time>
      </trkpt>
      <trkpt lat="48.29445" lon="2.57901">
        <ele>84</ele>
        <time>2017-05-05T10:20:19Z</time>
      </trkpt>
      <trkpt lat="48.29454" lon="2.57906">
        <ele>79</ele>
        <time>2017-05-05T10:20:33Z</time>
      </trkpt>
      <trkpt lat="48.2946" lon="2.57917">
        <ele>83</ele>
        <time>2017-05-05T10:21:27Z</time>
      </trkpt>
      <trkpt lat="48.29464" lon="2.5793">
        <ele>84</ele>
        <time>2017-05-05T10:21:37Z</time>
      </trkpt>
      <trkpt lat="48.29471" lon="2.57942">
        <ele>84</ele>
        <time>2017-05-05T10:21:49Z</time>
      </trkpt>
      <trkpt lat="48.29481" lon="2.57939">
        <ele>83</ele>
        <time>2017-05-05T10:21:59Z</time>
      </trkpt>
      <trkpt lat="48.2949" lon="2.57937">
        <ele>83</ele>
        <time>2017-05-05T10:22:09Z</time>
      </trkpt>
      <trkpt lat="48.29501" lon="2.57935">
        <ele>83</ele>
        <time>2017-05-05T10:22:22Z</time>
      </trkpt>
      <trkpt lat="48.29509" lon="2.57927">
        <ele>86</ele>
        <time>2017-05-05T10:22:38Z</time>
      </trkpt>
      <trkpt lat="48.2951" lon="2.57913">
        <ele>89</ele>
        <time>2017-05-05T10:22:50Z</time>
      </trkpt>
      <trkpt lat="48.29509" lon="2.579">
        <ele>88</ele>
        <time>2017-05-05T10:23:00Z</time>
      </trkpt>
      <trkpt lat="48.29507" lon="2.57886">
        <ele>85</ele>
        <time>2017-05-05T10:23:12Z</time>
      </trkpt>
      <trkpt lat="48.29501" lon="2.57875">
        <ele>87</ele>
        <time>2017-05-05T10:23:24Z</time>
      </trkpt>
      <trkpt lat="48.29503" lon="2.57862">
        <ele>89</ele>
        <time>2017-05-05T10:23:38Z</time>
      </trkpt>
      <trkpt lat="48.29507" lon="2.57847">
        <ele>93</ele>
        <time>2017-05-05T10:24:06Z</time>
      </trkpt>
      <trkpt lat="48.29513" lon="2.57835">
        <ele>96</ele>
        <time>2017-05-05T10:24:16Z</time>
      </trkpt>
      <trkpt lat="48.29514" lon="2.57822">
        <ele>89</ele>
        <time>2017-05-05T10:24:26Z</time>
      </trkpt>
      <trkpt lat="48.29519" lon="2.57809">
        <ele>86</ele>
        <time>2017-05-05T10:24:40Z</time>
      </trkpt>
      <trkpt lat="48.29526" lon="2.57793">
        <ele>89</ele>
        <time>2017-05-05T10:24:58Z</time>
      </trkpt>
      <trkpt lat="48.29531" lon="2.57782">
        <ele>86</ele>
        <time>2017-05-05T10:25:06Z</time>
      </trkpt>
      <trkpt lat="48.29539" lon="2.57776">
        <ele>90</ele>
        <time>2017-05-05T10:25:16Z</time>
      </trkpt>
      <trkpt lat="48.29544" lon="2.57772">
        <ele>89</ele>
        <time>2017-05-05T10:25:22Z</time>
      </trkpt>
      <trkpt lat="48.29606" lon="2.57768">
        <ele>98</ele>
        <time>2017-05-05T10:27:15Z</time>
      </trkpt>
      <trkpt lat="48.29598" lon="2.57773">
        <ele>98</ele>
        <time>2017-05-05T10:27:21Z</time>
      </trkpt>
      <trkpt lat="48.29595" lon="2.57757">
        <ele>97</ele>
        <time>2017-05-05T10:27:57Z</time>
      </trkpt>
      <trkpt lat="48.29585" lon="2.57743">
        <ele>99</ele>
        <time>2017-05-05T10:28:20Z</time>
      </trkpt>
      <trkpt lat="48.29583" lon="2.57748">
        <ele>97</ele>
        <time>2017-05-05T10:28:23Z</time>
      </trkpt>
      <trkpt lat="48.29506" lon="2.57964">
        <ele>106</ele>
        <time>2017-05-05T10:31:53Z</time>
      </trkpt>
      <trkpt lat="48.29498" lon="2.57951">
        <ele>83</ele>
        <time>2017-05-05T10:32:01Z</time>
      </trkpt>
      <trkpt lat="48.29491" lon="2.57959">
        <ele>84</ele>
        <time>2017-05-05T10:32:11Z</time>
      </trkpt>
      <trkpt lat="48.29481" lon="2.57958">
        <ele>83</ele>
        <time>2017-05-05T10:32:21Z</time>
      </trkpt>
      <trkpt lat="48.2947" lon="2.57953">
        <ele>83</ele>
        <time>2017-05-05T10:32:34Z</time>
      </trkpt>
      <trkpt lat="48.2946" lon="2.57948">
        <ele>84</ele>
        <time>2017-05-05T10:32:48Z</time>
      </trkpt>
      <trkpt lat="48.29451" lon="2.57935">
        <ele>84</ele>
        <time>2017-05-05T10:33:04Z</time>
      </trkpt>
      <trkpt lat="48.29443" lon="2.57919">
        <ele>78</ele>
        <time>2017-05-05T10:33:16Z</time>
      </trkpt>
      <trkpt lat="48.29432" lon="2.57912">
        <ele>75</ele>
        <time>2017-05-05T10:33:26Z</time>
      </trkpt>
      <trkpt lat="48.29427" lon="2.57923">
        <ele>78</ele>
        <time>2017-05-05T10:33:36Z</time>
      </trkpt>
      <trkpt lat="48.29424" lon="2.57936">
        <ele>79</ele>
        <time>2017-05-05T10:33:44Z</time>
      </trkpt>
      <trkpt lat="48.29416" lon="2.57944">
        <ele>81</ele>
        <time>2017-05-05T10:33:54Z</time>
      </trkpt>
      <trkpt lat="48.29403" lon="2.57951">
        <ele>83</ele>
        <time>2017-05-05T10:34:06Z</time>
      </trkpt>
      <trkpt lat="48.29393" lon="2.57956">
        <ele>83</ele>
        <time>2017-05-05T10:34:18Z</time>
      </trkpt>
      <trkpt lat="48.29384" lon="2.57962">
        <ele>88</ele>
        <time>2017-05-05T10:34:28Z</time>
      </trkpt>
      <trkpt lat="48.29374" lon="2.57961">
        <ele>84</ele>
        <time>2017-05-05T10:34:38Z</time>
      </trkpt>
      <trkpt lat="48.29364" lon="2.5796">
        <ele>81</ele>
        <time>2017-05-05T10:34:50Z</time>
      </trkpt>
      <trkpt lat="48.29355" lon="2.57959">
        <ele>82</ele>
        <time>2017-05-05T10:35:02Z</time>
      </trkpt>
      <trkpt lat="48.29348" lon="2.57976">
        <ele>89</ele>
        <time>2017-05-05T10:35:24Z</time>
      </trkpt>
      <trkpt lat="48.29347" lon="2.57989">
        <ele>97</ele>
        <time>2017-05-05T10:35:40Z</time>
      </trkpt>
      <trkpt lat="48.2935" lon="2.58007">
        <ele>91</ele>
        <time>2017-05-05T10:35:52Z</time>
      </trkpt>
      <trkpt lat="48.29352" lon="2.58022">
        <ele>86</ele>
        <time>2017-05-05T10:36:02Z</time>
      </trkpt>
      <trkpt lat="48.29354" lon="2.58037">
        <ele>93</ele>
        <time>2017-05-05T10:36:10Z</time>
      </trkpt>
      <trkpt lat="48.29352" lon="2.58051">
        <ele>90</ele>
        <time>2017-05-05T10:36:25Z</time>
      </trkpt>
      <trkpt lat="48.29343" lon="2.58057">
        <ele>96</ele>
        <time>2017-05-05T10:36:59Z</time>
      </trkpt>
      <trkpt lat="48.29338" lon="2.58068">
        <ele>90</ele>
        <time>2017-05-05T10:37:15Z</time>
      </trkpt>
      <trkpt lat="48.29332" lon="2.5808">
        <ele>92</ele>
        <time>2017-05-05T10:37:23Z</time>
      </trkpt>
      <trkpt lat="48.29328" lon="2.58093">
        <ele>92</ele>
        <time>2017-05-05T10:37:33Z</time>
      </trkpt>
      <trkpt lat="48.2932" lon="2.58103">
        <ele>92</ele>
        <time>2017-05-05T10:37:47Z</time>
      </trkpt>
      <trkpt lat="48.29316" lon="2.58118">
        <ele>93</ele>
        <time>2017-05-05T10:37:57Z</time>
      </trkpt>
      <trkpt lat="48.29307" lon="2.58126">
        <ele>95</ele>
        <time>2017-05-05T10:38:05Z</time>
      </trkpt>
      <trkpt lat="48.29297" lon="2.58134">
        <ele>97</ele>
        <time>2017-05-05T10:38:15Z</time>
      </trkpt>
      <trkpt lat="48.29288" lon="2.58133">
        <ele>97</ele>
        <time>2017-05-05T10:38:27Z</time>
      </trkpt>
      <trkpt lat="48.29278" lon="2.58135">
        <ele>96</ele>
        <time>2017-05-05T10:38:39Z</time>
      </trkpt>
      <trkpt lat="48.29268" lon="2.58131">
        <ele>95</ele>
        <time>2017-05-05T10:38:49Z</time>
      </trkpt>
      <trkpt lat="48.2926" lon="2.58137">
        <ele>96</ele>
        <time>2017-05-05T10:39:01Z</time>
      </trkpt>
      <trkpt lat="48.29252" lon="2.58144">
        <ele>95</ele>
        <time>2017-05-05T10:39:15Z</time>
      </trkpt>
      <trkpt lat="48.29243" lon="2.58154">
        <ele>91</ele>
        <time>2017-05-05T10:39:33Z</time>
      </trkpt>
      <trkpt lat="48.29233" lon="2.58157">
        <ele>87</ele>
        <time>2017-05-05T10:39:47Z</time>
      </trkpt>
      <trkpt lat="48.29223" lon="2.58155">
        <ele>87</ele>
        <time>2017-05-05T10:40:03Z</time>
      </trkpt>
      <trkpt lat="48.29212" lon="2.58153">
        <ele>87</ele>
        <time>2017-05-05T10:40:17Z</time>
      </trkpt>
      <trkpt lat="48.29203" lon="2.58151">
        <ele>88</ele>
        <time>2017-05-05T10:40:27Z</time>
      </trkpt>
      <trkpt lat="48.29193" lon="2.58147">
        <ele>83</ele>
        <time>2017-05-05T10:40:50Z</time>
      </trkpt>
      <trkpt lat="48.29184" lon="2.58142">
        <ele>87</ele>
        <time>2017-05-05T10:40:59Z</time>
      </trkpt>
      <trkpt lat="48.29175" lon="2.58144">
        <ele>89</ele>
        <time>2017-05-05T10:41:10Z</time>
      </trkpt>
      <trkpt lat="48.29166" lon="2.58153">
        <ele>91</ele>
        <time>2017-05-05T10:41:20Z</time>
      </trkpt>
      <trkpt lat="48.2916" lon="2.58165">
        <ele>93</ele>
        <time>2017-05-05T10:41:30Z</time>
      </trkpt>
      <trkpt lat="48.29158" lon="2.58179">
        <ele>97</ele>
        <time>2017-05-05T10:41:40Z</time>
      </trkpt>
      <trkpt lat="48.29158" lon="2.58195">
        <ele>97</ele>
        <time>2017-05-05T10:41:50Z</time>
      </trkpt>
      <trkpt lat="48.29158" lon="2.58203">
        <ele>98</ele>
        <time>2017-05-05T10:41:56Z</time>
      </trkpt>
      <trkpt lat="48.29149" lon="2.58345">
        <ele>100</ele>
        <time>2017-05-05T10:43:32Z</time>
      </trkpt>
      <trkpt lat="48.29143" lon="2.58347">
        <ele>96</ele>
        <time>2017-05-05T10:43:36Z</time>
      </trkpt>
      <trkpt lat="48.29054" lon="2.58387">
        <ele>107</ele>
        <time>2017-05-05T10:45:11Z</time>
      </trkpt>
      <trkpt lat="48.29046" lon="2.58376">
        <ele>103</ele>
        <time>2017-05-05T10:45:23Z</time>
      </trkpt>
      <trkpt lat="48.2904" lon="2.58365">
        <ele>86</ele>
        <time>2017-05-05T10:45:33Z</time>
      </trkpt>
      <trkpt lat="48.29031" lon="2.58357">
        <ele>94</ele>
        <time>2017-05-05T10:45:49Z</time>
      </trkpt>
      <trkpt lat="48.29022" lon="2.58347">
        <ele>87</ele>
        <time>2017-05-05T10:45:59Z</time>
      </trkpt>
      <trkpt lat="48.2901" lon="2.58339">
        <ele>92</ele>
        <time>2017-05-05T10:46:09Z</time>
      </trkpt>
      <trkpt lat="48.29" lon="2.5834">
        <ele>94</ele>
        <time>2017-05-05T10:46:19Z</time>
      </trkpt>
      <trkpt lat="48.28988" lon="2.5834">
        <ele>91</ele>
        <time>2017-05-05T10:46:29Z</time>
      </trkpt>
      <trkpt lat="48.28979" lon="2.58343">
        <ele>89</ele>
        <time>2017-05-05T10:46:41Z</time>
      </trkpt>
      <trkpt lat="48.28968" lon="2.58346">
        <ele>89</ele>
        <time>2017-05-05T10:46:53Z</time>
      </trkpt>
      <trkpt lat="48.28959" lon="2.58345">
        <ele>91</ele>
        <time>2017-05-05T10:47:03Z</time>
      </trkpt>
      <trkpt lat="48.28949" lon="2.58347">
        <ele>96</ele>
        <time>2017-05-05T10:47:13Z</time>
      </trkpt>
      <trkpt lat="48.28927" lon="2.58349">
        <ele>102</ele>
        <time>2017-05-05T10:47:35Z</time>
      </trkpt>
      <trkpt lat="48.28913" lon="2.58344">
        <ele>102</ele>
        <time>2017-05-05T10:47:49Z</time>
      </trkpt>
      <trkpt lat="48.28904" lon="2.58335">
        <ele>105</ele>
        <time>2017-05-05T10:48:00Z</time>
      </trkpt>
      <trkpt lat="48.28897" lon="2.58325">
        <ele>110</ele>
        <time>2017-05-05T10:48:11Z</time>
      </trkpt>
      <trkpt lat="48.2889" lon="2.58317">
        <ele>114</ele>
        <time>2017-05-05T10:48:44Z</time>
      </trkpt>
      <trkpt lat="48.28888" lon="2.58332">
        <ele>116</ele>
        <time>2017-05-05T10:48:56Z</time>
      </trkpt>
      <trkpt lat="48.28889" lon="2.58345">
        <ele>115</ele>
        <time>2017-05-05T10:49:16Z</time>
      </trkpt>
      <trkpt lat="48.2889" lon="2.58359">
        <ele>117</ele>
        <time>2017-05-05T10:49:26Z</time>
      </trkpt>
      <trkpt lat="48.28892" lon="2.58372">
        <ele>116</ele>
        <time>2017-05-05T10:49:34Z</time>
      </trkpt>
      <trkpt lat="48.28892" lon="2.58386">
        <ele>117</ele>
        <time>2017-05-05T10:49:44Z</time>
      </trkpt>
      <trkpt lat="48.28893" lon="2.58407">
        <ele>118</ele>
        <time>2017-05-05T10:49:56Z</time>
      </trkpt>
      <trkpt lat="48.28891" lon="2.58422">
        <ele>119</ele>
        <time>2017-05-05T10:50:04Z</time>
      </trkpt>
      <trkpt lat="48.28889" lon="2.58438">
        <ele>119</ele>
        <time>2017-05-05T10:50:14Z</time>
      </trkpt>
      <trkpt lat="48.28888" lon="2.58454">
        <ele>119</ele>
        <time>2017-05-05T10:50:24Z</time>
      </trkpt>
      <trkpt lat="48.28886" lon="2.58467">
        <ele>119</ele>
        <time>2017-05-05T10:50:32Z</time>
      </trkpt>
      <trkpt lat="48.28885" lon="2.58484">
        <ele>119</ele>
        <time>2017-05-05T10:50:42Z</time>
      </trkpt>
      <trkpt lat="48.28882" lon="2.58504">
        <ele>120</ele>
        <time>2017-05-05T10:50:54Z</time>
      </trkpt>
      <trkpt lat="48.28878" lon="2.58522">
        <ele>121</ele>
        <time>2017-05-05T10:51:06Z</time>
      </trkpt>
      <trkpt lat="48.28874" lon="2.58537">
        <ele>121</ele>
        <time>2017-05-05T10:51:16Z</time>
      </trkpt>
      <trkpt lat="48.28869" lon="2.58554">
        <ele>120</ele>
        <time>2017-05-05T10:51:28Z</time>
      </trkpt>
      <trkpt lat="48.28864" lon="2.58566">
        <ele>120</ele>
        <time>2017-05-05T10:51:36Z</time>
      </trkpt>
      <trkpt lat="48.2886" lon="2.58578">
        <ele>121</ele>
        <time>2017-05-05T10:51:44Z</time>
      </trkpt>
      <trkpt lat="48.28843" lon="2.58628">
        <ele>121</ele>
        <time>2017-05-05T10:52:18Z</time>
      </trkpt>
      <trkpt lat="48.28838" lon="2.58644">
        <ele>122</ele>
        <time>2017-05-05T10:52:28Z</time>
      </trkpt>
      <trkpt lat="48.2883" lon="2.58666">
        <ele>121</ele>
        <time>2017-05-05T10:52:42Z</time>
      </trkpt>
      <trkpt lat="48.28826" lon="2.58681">
        <ele>122</ele>
        <time>2017-05-05T10:52:52Z</time>
      </trkpt>
      <trkpt lat="48.28822" lon="2.58693">
        <ele>121</ele>
        <time>2017-05-05T10:53:00Z</time>
      </trkpt>
      <trkpt lat="48.28816" lon="2.58708">
        <ele>121</ele>
        <time>2017-05-05T10:53:10Z</time>
      </trkpt>
      <trkpt lat="48.28811" lon="2.5872">
        <ele>121</ele>
        <time>2017-05-05T10:53:18Z</time>
      </trkpt>
      <trkpt lat="48.28808" lon="2.58733">
        <ele>120</ele>
        <time>2017-05-05T10:53:29Z</time>
      </trkpt>
      <trkpt lat="48.28802" lon="2.58743">
        <ele>122</ele>
        <time>2017-05-05T10:54:15Z</time>
      </trkpt>
      <trkpt lat="48.28799" lon="2.58756">
        <ele>121</ele>
        <time>2017-05-05T10:54:23Z</time>
      </trkpt>
      <trkpt lat="48.28792" lon="2.58767">
        <ele>121</ele>
        <time>2017-05-05T10:54:33Z</time>
      </trkpt>
      <trkpt lat="48.28783" lon="2.58771">
        <ele>120</ele>
        <time>2017-05-05T10:54:43Z</time>
      </trkpt>
      <trkpt lat="48.28773" lon="2.58769">
        <ele>119</ele>
        <time>2017-05-05T10:54:51Z</time>
      </trkpt>
      <trkpt lat="48.28764" lon="2.58762">
        <ele>121</ele>
        <time>2017-05-05T10:54:59Z</time>
      </trkpt>
      <trkpt lat="48.28756" lon="2.58754">
        <ele>122</ele>
        <time>2017-05-05T10:55:07Z</time>
      </trkpt>
      <trkpt lat="48.2874" lon="2.58739">
        <ele>122</ele>
        <time>2017-05-05T10:55:23Z</time>
      </trkpt>
      <trkpt lat="48.28733" lon="2.58731">
        <ele>122</ele>
        <time>2017-05-05T10:55:31Z</time>
      </trkpt>
      <trkpt lat="48.28723" lon="2.58723">
        <ele>121</ele>
        <time>2017-05-05T10:55:41Z</time>
      </trkpt>
      <trkpt lat="48.28713" lon="2.58716">
        <ele>119</ele>
        <time>2017-05-05T10:55:51Z</time>
      </trkpt>
      <trkpt lat="48.28705" lon="2.58711">
        <ele>119</ele>
        <time>2017-05-05T10:55:59Z</time>
      </trkpt>
      <trkpt lat="48.28695" lon="2.58707">
        <ele>118</ele>
        <time>2017-05-05T10:56:07Z</time>
      </trkpt>
      <trkpt lat="48.28685" lon="2.58714">
        <ele>115</ele>
        <time>2017-05-05T10:56:17Z</time>
      </trkpt>
      <trkpt lat="48.28674" lon="2.58714">
        <ele>117</ele>
        <time>2017-05-05T10:56:27Z</time>
      </trkpt>
      <trkpt lat="48.28659" lon="2.58719">
        <ele>117</ele>
        <time>2017-05-05T10:56:41Z</time>
      </trkpt>
      <trkpt lat="48.28647" lon="2.5872">
        <ele>115</ele>
        <time>2017-05-05T10:56:53Z</time>
      </trkpt>
      <trkpt lat="48.28634" lon="2.58719">
        <ele>115</ele>
        <time>2017-05-05T10:57:05Z</time>
      </trkpt>
      <trkpt lat="48.28623" lon="2.58712">
        <ele>115</ele>
        <time>2017-05-05T10:57:14Z</time>
      </trkpt>
      <trkpt lat="48.28605" lon="2.587">
        <ele>115</ele>
        <time>2017-05-05T10:57:30Z</time>
      </trkpt>
      <trkpt lat="48.28596" lon="2.58693">
        <ele>116</ele>
        <time>2017-05-05T10:57:40Z</time>
      </trkpt>
      <trkpt lat="48.28588" lon="2.58688">
        <ele>113</ele>
        <time>2017-05-05T10:57:48Z</time>
      </trkpt>
      <trkpt lat="48.28578" lon="2.58685">
        <ele>111</ele>
        <time>2017-05-05T10:57:56Z</time>
      </trkpt>
      <trkpt lat="48.2857" lon="2.5868">
        <ele>112</ele>
        <time>2017-05-05T10:58:04Z</time>
      </trkpt>
      <trkpt lat="48.2856" lon="2.58678">
        <ele>110</ele>
        <time>2017-05-05T10:58:14Z</time>
      </trkpt>
      <trkpt lat="48.28551" lon="2.58669">
        <ele>111</ele>
        <time>2017-05-05T10:58:24Z</time>
      </trkpt>
      <trkpt lat="48.2856" lon="2.58672">
        <ele>116</ele>
        <time>2017-05-05T10:58:50Z</time>
      </trkpt>
      <trkpt lat="48.28572" lon="2.58679">
        <ele>115</ele>
        <time>2017-05-05T10:59:02Z</time>
      </trkpt>
      <trkpt lat="48.28565" lon="2.5867">
        <ele>114</ele>
        <time>2017-05-05T10:59:30Z</time>
      </trkpt>
      <trkpt lat="48.28552" lon="2.58662">
        <ele>115</ele>
        <time>2017-05-05T10:59:42Z</time>
      </trkpt>
      <trkpt lat="48.28546" lon="2.58652">
        <ele>113</ele>
        <time>2017-05-05T10:59:52Z</time>
      </trkpt>
      <trkpt lat="48.28543" lon="2.58666">
        <ele>116</ele>
        <time>2017-05-05T11:00:18Z</time>
      </trkpt>
      <trkpt lat="48.28535" lon="2.58671">
        <ele>120</ele>
        <time>2017-05-05T11:00:28Z</time>
      </trkpt>
      <trkpt lat="48.28526" lon="2.58674">
        <ele>117</ele>
        <time>2017-05-05T11:00:40Z</time>
      </trkpt>
      <trkpt lat="48.28522" lon="2.58688">
        <ele>117</ele>
        <time>2017-05-05T11:00:58Z</time>
      </trkpt>
      <trkpt lat="48.28531" lon="2.58696">
        <ele>117</ele>
        <time>2017-05-05T11:01:11Z</time>
      </trkpt>
      <trkpt lat="48.28542" lon="2.58697">
        <ele>115</ele>
        <time>2017-05-05T11:01:25Z</time>
      </trkpt>
      <trkpt lat="48.28549" lon="2.58696">
        <ele>111</ele>
        <time>2017-05-05T11:01:35Z</time>
      </trkpt>
      <trkpt lat="48.28314" lon="2.59835">
        <ele>65</ele>
        <time>2017-05-05T11:21:36Z</time>
      </trkpt>
      <trkpt lat="48.28317" lon="2.59832">
        <ele>67</ele>
        <time>2017-05-05T11:21:37Z</time>
      </trkpt>
    </trkseg>
  </trk>
</gpx>